createdAt,value
2023-04-05T00:00:56.420Z,-1.00
2023-04-05T00:03:23.139Z,-1.05
2023-04-05T00:05:50.112Z,-0.97
2023-04-05T00:08:26.896Z,-1.02
2023-04-05T00:10:54.037Z,-0.95
2023-04-05T00:13:27.558Z,-1.09
2023-04-05T00:15:59.363Z,-1.04
2023-04-05T00:18:25.831Z,-1.11
2023-04-05T00:20:52.796Z,-1.13
2023-04-05T00:23:20.704Z,-1.28
2023-04-05T00:25:49.123Z,-1.46
2023-04-05T00:28:15.806Z,-1.47
2023-04-05T00:30:42.577Z,-1.40
2023-04-05T00:33:09.315Z,-1.41
2023-04-05T00:35:35.925Z,-1.44
2023-04-05T00:38:02.870Z,-1.40
2023-04-05T00:40:29.268Z,-1.39
2023-04-05T00:42:55.798Z,-1.36
2023-04-05T00:45:22.519Z,-1.35
2023-04-05T00:47:49.014Z,-1.45
2023-04-05T00:50:16.583Z,-1.41
2023-04-05T00:52:44.176Z,-1.53
2023-04-05T00:55:10.990Z,-1.55
2023-04-05T00:57:39.326Z,-1.48
2023-04-05T01:00:09.544Z,-1.60
2023-04-05T01:02:45.771Z,-1.49
2023-04-05T01:05:34.913Z,-1.54
2023-04-05T01:08:04.096Z,-1.53
2023-04-05T01:10:35.391Z,-1.53
2023-04-05T01:13:02.207Z,-1.54
2023-04-05T01:15:29.467Z,-1.52
2023-04-05T01:17:57.674Z,-1.49
2023-04-05T01:20:28.764Z,-1.55
2023-04-05T01:23:14.821Z,-1.60
2023-04-05T01:25:47.448Z,-1.72
2023-04-05T01:28:37.310Z,-1.72
2023-04-05T01:31:03.647Z,-1.70
2023-04-05T01:34:05.941Z,-1.74
2023-04-05T01:36:53.405Z,-1.79
2023-04-05T01:39:20.727Z,-1.86
2023-04-05T01:41:47.328Z,-1.80
2023-04-05T01:44:13.985Z,-1.85
2023-04-05T01:46:43.043Z,-1.93
2023-04-05T01:49:09.611Z,-1.84
2023-04-05T01:51:36.464Z,-1.89
2023-04-05T01:54:02.790Z,-1.92
2023-04-05T01:56:29.141Z,-1.86
2023-04-05T01:58:55.866Z,-1.90
2023-04-05T02:01:22.375Z,-1.97
2023-04-05T02:03:48.954Z,-2.07
2023-04-05T02:06:16.354Z,-2.07
2023-04-05T02:08:42.791Z,-2.17
2023-04-05T02:11:09.210Z,-2.20
2023-04-05T02:13:35.837Z,-2.16
2023-04-05T02:16:02.556Z,-2.12
2023-04-05T02:18:32.188Z,-2.19
2023-04-05T02:21:03.162Z,-2.23
2023-04-05T02:23:30.811Z,-2.37
2023-04-05T02:25:57.584Z,-2.34
2023-04-05T02:28:23.893Z,-2.35
2023-04-05T02:30:50.293Z,-2.24
2023-04-05T02:33:16.704Z,-2.27
2023-04-05T02:35:43.301Z,-2.24
2023-04-05T02:38:09.901Z,-2.28
2023-04-05T02:40:36.740Z,-2.23
2023-04-05T02:43:03.529Z,-2.19
2023-04-05T02:45:30.267Z,-2.14
2023-04-05T02:47:57.036Z,-2.08
2023-04-05T02:50:23.921Z,-2.08
2023-04-05T02:52:50.920Z,-2.02
2023-04-05T02:55:17.581Z,-1.88
2023-04-05T02:57:46.372Z,-1.82
2023-04-05T03:00:13.540Z,-1.95
2023-04-05T03:02:39.995Z,-1.98
2023-04-05T03:05:07.793Z,-1.98
2023-04-05T03:07:35.777Z,-2.21
2023-04-05T03:10:03.383Z,-2.19
2023-04-05T03:12:30.185Z,-2.31
2023-04-05T03:14:56.531Z,-2.38
2023-04-05T03:17:22.979Z,-2.59
2023-04-05T03:19:49.382Z,-2.76
2023-04-05T03:22:16.191Z,-2.70
2023-04-05T03:24:42.832Z,-2.73
2023-04-05T03:27:09.292Z,-2.85
2023-04-05T03:29:35.943Z,-2.74
2023-04-05T03:32:02.600Z,-2.79
2023-04-05T03:34:30.900Z,-2.92
2023-04-05T03:39:27.233Z,-2.83
2023-04-05T03:41:53.763Z,-2.84
2023-04-05T03:44:20.693Z,-2.97
2023-04-05T03:46:47.125Z,-2.99
2023-04-05T03:49:13.847Z,-2.99
2023-04-05T03:51:40.237Z,-2.99
2023-04-05T03:54:09.745Z,-3.04
2023-04-05T03:56:36.464Z,-3.00
2023-04-05T03:59:03.719Z,-3.02
2023-04-05T04:01:30.694Z,-3.11
2023-04-05T04:03:57.198Z,-3.13
2023-04-05T04:06:26.889Z,-3.03
2023-04-05T04:08:53.563Z,-3.00
2023-04-05T04:11:20.041Z,-3.02
2023-04-05T04:13:46.559Z,-3.02
2023-04-05T04:16:13.478Z,-3.06
2023-04-05T04:18:40.247Z,-3.10
2023-04-05T04:21:07.238Z,-3.12
2023-04-05T04:23:34.594Z,-3.09
2023-04-05T04:26:01.894Z,-2.97
2023-04-05T04:28:29.210Z,-2.99
2023-04-05T04:30:55.688Z,-3.00
2023-04-05T04:33:22.120Z,-3.00
2023-04-05T04:35:48.618Z,-3.12
2023-04-05T04:38:19.048Z,-3.16
2023-04-05T04:40:48.707Z,-3.13
2023-04-05T04:43:17.513Z,-3.14
2023-04-05T04:45:48.376Z,-3.21
2023-04-05T04:48:16.911Z,-3.30
2023-04-05T04:50:47.763Z,-3.39
2023-04-05T04:53:18.241Z,-3.30
2023-04-05T04:55:44.972Z,-3.19
2023-04-05T04:58:13.016Z,-3.09
2023-04-05T05:00:41.008Z,-3.14
2023-04-05T05:03:08.656Z,-3.15
2023-04-05T05:05:35.319Z,-3.16
2023-04-05T05:08:02.028Z,-3.15
2023-04-05T05:10:28.677Z,-3.16
2023-04-05T05:12:55.170Z,-3.15
2023-04-05T05:15:21.861Z,-3.13
2023-04-05T05:17:53.229Z,-3.21
2023-04-05T05:20:19.860Z,-3.24
2023-04-05T05:22:46.669Z,-3.13
2023-04-05T05:25:13.242Z,-3.00
2023-04-05T05:27:39.674Z,-2.95
2023-04-05T05:30:10.116Z,-2.97
2023-04-05T05:32:42.014Z,-2.88
2023-04-05T05:35:09.165Z,-2.59
2023-04-05T05:37:36.730Z,-2.71
2023-04-05T05:40:05.166Z,-2.63
2023-04-05T05:42:34.571Z,-2.52
2023-04-05T05:45:03.468Z,-2.39
2023-04-05T05:47:29.935Z,-2.42
2023-04-05T05:49:56.555Z,-2.40
2023-04-05T05:52:22.986Z,-2.28
2023-04-05T05:54:49.488Z,-2.17
2023-04-05T05:57:16.013Z,-2.24
2023-04-05T05:59:45.553Z,-2.17
2023-04-05T06:02:12.131Z,-1.96
2023-04-05T06:04:38.585Z,-1.66
2023-04-05T06:07:05.038Z,-1.55
2023-04-05T06:09:34.034Z,-1.50
2023-04-05T06:12:01.291Z,-1.84
2023-04-05T06:14:29.814Z,-1.44
2023-04-05T06:16:56.672Z,-1.20
2023-04-05T06:19:23.333Z,-1.23
2023-04-05T06:21:49.934Z,-1.01
2023-04-05T06:24:17.344Z,-0.93
2023-04-05T06:26:44.066Z,-0.75
2023-04-05T06:29:10.981Z,-0.46
2023-04-05T06:31:39.577Z,-0.05
2023-04-05T06:34:06.435Z,0.40
2023-04-05T06:36:34.512Z,0.68
2023-04-05T06:39:01.671Z,1.57
2023-04-05T06:41:28.315Z,2.15
2023-04-05T06:43:55.607Z,3.28
2023-04-05T06:46:22.590Z,3.05
2023-04-05T06:48:50.414Z,2.84
2023-04-05T06:51:17.072Z,3.08
2023-04-05T06:53:43.602Z,3.41
2023-04-05T06:56:10.321Z,4.45
2023-04-05T06:58:36.770Z,3.35
2023-04-05T07:01:04.144Z,4.70
2023-04-05T07:03:31.105Z,4.23
2023-04-05T07:05:59.465Z,5.82
2023-04-05T07:08:26.815Z,6.24
2023-04-05T07:10:53.575Z,5.74
2023-04-05T07:13:21.535Z,6.66
2023-04-05T07:15:48.290Z,5.57
2023-04-05T07:18:20.329Z,5.79
2023-04-05T07:20:48.188Z,5.37
2023-04-05T07:23:15.027Z,7.25
2023-04-05T07:25:41.773Z,6.96
2023-04-05T07:28:08.330Z,6.80
2023-04-05T07:30:36.497Z,6.22
2023-04-05T07:33:02.973Z,4.47
2023-04-05T07:35:30.207Z,7.24
2023-04-05T07:37:56.727Z,8.32
2023-04-05T07:40:23.364Z,7.77
2023-04-05T07:42:49.921Z,7.44
2023-04-05T07:45:16.505Z,6.75
2023-04-05T07:47:43.062Z,7.82
2023-04-05T07:50:11.766Z,8.52
2023-04-05T07:52:38.398Z,7.36
2023-04-05T07:55:05.038Z,8.67
2023-04-05T07:57:32.265Z,8.50
2023-04-05T07:59:58.828Z,8.29
2023-04-05T08:02:25.676Z,8.73
2023-04-05T08:04:52.300Z,10.17
2023-04-05T08:07:19.014Z,7.67
2023-04-05T08:09:46.139Z,8.84
2023-04-05T08:12:12.716Z,8.22
2023-04-05T08:14:39.047Z,8.46
2023-04-05T08:17:05.665Z,9.49
2023-04-05T08:19:32.147Z,9.82
2023-04-05T08:21:58.785Z,9.43
2023-04-05T08:24:26.830Z,9.15
2023-04-05T08:26:53.355Z,9.66
2023-04-05T08:29:20.181Z,9.04
2023-04-05T08:31:46.944Z,10.40
2023-04-05T08:34:13.292Z,9.72
2023-04-05T08:36:39.948Z,9.76
2023-04-05T08:39:06.501Z,8.91
2023-04-05T08:41:36.773Z,11.85
2023-04-05T08:44:05.615Z,12.34
2023-04-05T08:46:33.708Z,12.65
2023-04-05T08:49:02.090Z,12.27
2023-04-05T08:51:29.083Z,11.41
2023-04-05T08:53:55.705Z,12.20
2023-04-05T08:56:26.142Z,10.39
2023-04-05T08:59:06.216Z,10.72
2023-04-05T09:01:33.566Z,12.86
2023-04-05T09:04:01.711Z,12.40
2023-04-05T09:06:28.809Z,10.39
2023-04-05T09:08:58.910Z,10.30
2023-04-05T09:11:25.675Z,9.83
2023-04-05T09:13:54.688Z,8.68
2023-04-05T09:16:21.423Z,7.95
2023-04-05T09:18:49.164Z,7.92
2023-04-05T09:21:17.524Z,8.09
2023-04-05T09:23:56.712Z,8.57
2023-04-05T09:26:24.569Z,8.63
2023-04-05T09:28:51.120Z,8.67
2023-04-05T09:31:36.387Z,7.96
2023-04-05T09:34:04.107Z,8.46
2023-04-05T09:36:33.329Z,8.02
2023-04-05T09:39:09.431Z,8.35
2023-04-05T09:41:36.342Z,8.54
2023-04-05T09:44:02.907Z,8.26
2023-04-05T09:46:31.601Z,10.18
2023-04-05T09:48:58.383Z,10.08
2023-04-05T09:51:31.554Z,8.43
2023-04-05T09:54:02.240Z,8.24
2023-04-05T09:56:29.858Z,7.77
2023-04-05T09:59:06.317Z,7.77
2023-04-05T10:01:33.367Z,8.03
2023-04-05T10:04:00.403Z,6.57
2023-04-05T10:06:35.136Z,7.97
2023-04-05T10:09:02.239Z,8.03
2023-04-05T10:11:29.144Z,8.56
2023-04-05T10:13:56.226Z,7.46
2023-04-05T10:16:26.574Z,7.99
2023-04-05T10:18:54.182Z,7.90
2023-04-05T10:21:22.550Z,7.26
2023-04-05T10:23:55.225Z,6.81
2023-04-05T10:26:29.145Z,7.64
2023-04-05T10:29:01.252Z,8.10
2023-04-05T10:31:37.162Z,7.68
2023-04-05T10:34:09.033Z,7.30
2023-04-05T10:36:40.451Z,7.93
2023-04-05T10:39:09.971Z,9.48
2023-04-05T10:41:53.771Z,9.31
2023-04-05T10:44:26.439Z,10.94
2023-04-05T10:46:55.140Z,9.47
2023-04-05T10:49:28.505Z,8.23
2023-04-05T10:51:58.054Z,8.78
2023-04-05T10:54:25.808Z,9.78
2023-04-05T10:56:52.793Z,12.81
2023-04-05T10:59:20.523Z,9.89
2023-04-05T11:01:47.377Z,10.46
2023-04-05T11:04:15.269Z,11.50
2023-04-05T11:06:43.128Z,11.28
2023-04-05T11:09:17.066Z,12.04
2023-04-05T11:11:47.121Z,11.19
2023-04-05T11:14:25.820Z,11.30
2023-04-05T11:16:55.416Z,13.22
2023-04-05T11:19:40.825Z,11.20
2023-04-05T11:22:07.204Z,9.96
2023-04-05T11:24:54.045Z,10.34
2023-04-05T11:27:41.140Z,11.85
2023-04-05T11:30:08.098Z,10.67
2023-04-05T11:32:41.693Z,12.38
2023-04-05T11:35:13.772Z,12.42
2023-04-05T11:37:58.964Z,9.74
2023-04-05T11:40:27.464Z,8.94
2023-04-05T11:43:05.152Z,9.57
2023-04-05T11:45:33.827Z,9.94
2023-04-05T11:48:11.008Z,8.81
2023-04-05T11:50:38.617Z,11.32
2023-04-05T11:53:08.655Z,11.71
2023-04-05T11:55:35.270Z,13.06
2023-04-05T11:58:02.036Z,14.50
2023-04-05T12:00:28.633Z,12.67
2023-04-05T12:02:58.307Z,12.84
2023-04-05T12:05:25.007Z,12.68
2023-04-05T12:07:54.670Z,10.77
2023-04-05T12:10:21.635Z,12.91
2023-04-05T12:12:49.116Z,12.87
2023-04-05T12:15:19.120Z,13.09
2023-04-05T12:17:54.472Z,11.62
2023-04-05T12:20:22.630Z,14.52
2023-04-05T12:22:50.182Z,14.69
2023-04-05T12:25:17.110Z,13.62
2023-04-05T12:27:43.662Z,11.18
2023-04-05T12:30:10.236Z,11.17
2023-04-05T12:32:46.849Z,12.30
2023-04-05T12:35:19.644Z,12.97
2023-04-05T12:37:47.020Z,11.41
2023-04-05T12:40:14.070Z,12.43
2023-04-05T12:42:41.171Z,14.72
2023-04-05T12:45:12.622Z,11.35
2023-04-05T12:47:58.999Z,13.27
2023-04-05T12:50:27.958Z,16.16
2023-04-05T12:52:54.490Z,13.76
2023-04-05T12:55:21.707Z,12.93
2023-04-05T12:57:52.498Z,11.69
2023-04-05T13:00:21.588Z,11.91
2023-04-05T13:02:53.740Z,11.93
2023-04-05T13:05:24.294Z,11.42
2023-04-05T13:07:51.158Z,10.28
2023-04-05T13:10:21.467Z,11.83
2023-04-05T13:12:48.390Z,10.64
2023-04-05T13:15:15.722Z,11.24
2023-04-05T13:17:45.649Z,11.08
2023-04-05T13:20:12.311Z,10.13
2023-04-05T13:22:42.361Z,11.35
2023-04-05T13:25:09.472Z,10.99
2023-04-05T13:27:36.730Z,12.34
2023-04-05T13:30:04.068Z,13.30
2023-04-05T13:32:30.682Z,12.60
2023-04-05T13:34:57.300Z,13.89
2023-04-05T13:37:24.202Z,13.61
2023-04-05T13:39:51.033Z,10.62
2023-04-05T13:42:17.561Z,8.85
2023-04-05T13:44:44.275Z,8.85
2023-04-05T13:47:10.961Z,9.15
2023-04-05T13:49:37.549Z,9.76
2023-04-05T13:52:04.119Z,9.54
2023-04-05T13:54:30.859Z,9.78
2023-04-05T13:56:59.354Z,10.20
2023-04-05T13:59:26.155Z,9.20
2023-04-05T14:01:52.898Z,8.66
2023-04-05T14:07:04.998Z,8.62
2023-04-05T14:09:32.582Z,8.61
2023-04-05T14:12:01.202Z,9.63
2023-04-05T14:14:27.886Z,9.33
2023-04-05T14:16:54.509Z,8.63
2023-04-05T14:19:24.427Z,9.45
2023-04-05T14:21:51.306Z,9.29
2023-04-05T14:24:17.841Z,8.56
2023-04-05T14:26:49.766Z,9.56
2023-04-05T14:29:17.331Z,9.78
2023-04-05T14:31:44.488Z,10.12
2023-04-05T14:34:11.418Z,9.67
2023-04-05T14:36:38.228Z,9.51
2023-04-05T14:39:04.802Z,9.25
2023-04-05T14:41:31.466Z,8.96
2023-04-05T14:43:58.156Z,8.59
2023-04-05T14:46:29.440Z,8.78
2023-04-05T14:48:56.042Z,9.97
2023-04-05T14:51:22.542Z,9.87
2023-04-05T14:53:48.984Z,9.85
2023-04-05T14:56:15.450Z,10.09
2023-04-05T14:58:42.021Z,9.40
2023-04-05T15:01:10.428Z,9.07
2023-04-05T15:03:37.950Z,9.82
2023-04-05T15:06:05.148Z,10.15
2023-04-05T15:08:31.914Z,10.16
2023-04-05T15:10:58.784Z,10.30
2023-04-05T15:13:27.061Z,10.04
2023-04-05T15:15:53.893Z,10.29
2023-04-05T15:18:20.774Z,10.20
2023-04-05T15:20:50.076Z,9.81
2023-04-05T15:23:16.522Z,9.85
2023-04-05T15:25:43.621Z,9.09
2023-04-05T15:28:10.737Z,9.19
2023-04-05T15:30:37.793Z,9.13
2023-04-05T15:33:04.359Z,8.82
2023-04-05T15:35:31.265Z,9.20
2023-04-05T15:37:58.857Z,9.00
2023-04-05T15:40:25.424Z,8.72
2023-04-05T15:42:51.980Z,8.96
2023-04-05T15:45:18.570Z,8.74
2023-04-05T15:47:45.479Z,8.28
2023-04-05T15:50:12.318Z,8.14
2023-04-05T15:52:42.388Z,8.38
2023-04-05T15:55:08.900Z,8.58
2023-04-05T15:57:35.953Z,8.34
2023-04-05T16:00:03.608Z,8.61
2023-04-05T16:02:31.656Z,8.74
2023-04-05T16:05:01.936Z,8.62
2023-04-05T16:07:28.444Z,8.23
2023-04-05T16:09:55.056Z,7.89
2023-04-05T16:12:21.568Z,8.05
2023-04-05T16:14:48.085Z,7.62
2023-04-05T16:17:14.735Z,7.65
2023-04-05T16:19:41.338Z,7.58
2023-04-05T16:22:08.049Z,7.70
2023-04-05T16:24:36.868Z,7.78
2023-04-05T16:27:03.431Z,7.67
2023-04-05T16:29:29.922Z,7.66
2023-04-05T16:31:56.695Z,7.58
2023-04-05T16:34:23.284Z,7.54
2023-04-05T16:36:49.766Z,7.74
2023-04-05T16:39:16.283Z,7.75
2023-04-05T16:41:42.968Z,7.40
2023-04-05T16:44:09.765Z,7.50
2023-04-05T16:46:36.268Z,7.61
2023-04-05T16:49:02.852Z,6.96
2023-04-05T16:51:29.505Z,7.61
2023-04-05T16:53:56.106Z,7.54
2023-04-05T16:56:24.321Z,7.38
2023-04-05T16:58:52.087Z,7.34
2023-04-05T17:01:18.729Z,7.18
2023-04-05T17:03:48.311Z,7.12
2023-04-05T17:06:14.883Z,7.09
2023-04-05T17:08:41.631Z,7.19
2023-04-05T17:11:08.382Z,7.04
2023-04-05T17:13:34.781Z,6.97
2023-04-05T17:16:01.901Z,7.02
2023-04-05T17:18:29.177Z,7.02
2023-04-05T17:20:55.862Z,6.97
2023-04-05T17:23:23.577Z,6.86
2023-04-05T17:25:51.238Z,6.89
2023-04-05T17:28:17.640Z,6.77
2023-04-05T17:30:44.273Z,6.74
2023-04-05T17:33:11.397Z,6.68
2023-04-05T17:35:38.151Z,6.61
2023-04-05T17:38:04.869Z,6.58
2023-04-05T17:40:32.073Z,6.37
2023-04-05T17:43:01.004Z,6.39
2023-04-05T17:45:27.765Z,6.32
2023-04-05T17:47:54.236Z,6.23
2023-04-05T17:50:22.592Z,6.21
2023-04-05T17:52:51.289Z,6.05
2023-04-05T17:55:17.851Z,6.10
2023-04-05T17:57:44.388Z,6.05
2023-04-05T18:00:11.457Z,5.92
2023-04-05T18:02:38.483Z,5.93
2023-04-05T18:05:05.016Z,5.82
2023-04-05T18:07:34.746Z,5.74
2023-04-05T18:10:01.374Z,5.74
2023-04-05T18:12:28.347Z,5.66
2023-04-05T18:14:56.356Z,5.61
2023-04-05T18:17:22.972Z,5.53
2023-04-05T18:19:49.607Z,5.52
2023-04-05T18:22:16.737Z,5.46
2023-04-05T18:24:43.311Z,5.37
2023-04-05T18:27:10.619Z,5.28
2023-04-05T18:29:40.299Z,5.27
2023-04-05T18:32:07.524Z,5.14
2023-04-05T18:34:34.950Z,5.13
2023-04-05T18:37:01.960Z,5.09
2023-04-05T18:39:28.451Z,5.02
2023-04-05T18:41:55.129Z,3.83
2023-04-05T18:44:21.797Z,4.92
2023-04-05T18:46:49.884Z,4.87
2023-04-05T18:49:18.555Z,4.20
2023-04-05T18:51:45.399Z,4.80
2023-04-05T18:54:12.391Z,4.79
2023-04-05T18:56:39.125Z,4.70
2023-04-05T18:59:06.136Z,4.59
2023-04-05T19:01:32.836Z,4.53
2023-04-05T19:04:01.327Z,4.44
2023-04-05T19:06:28.267Z,4.39
2023-04-05T19:08:54.821Z,4.24
2023-04-05T19:11:22.109Z,4.08
2023-04-05T19:13:48.694Z,4.01
2023-04-05T19:16:17.811Z,3.94
2023-04-05T19:18:44.742Z,3.88
2023-04-05T19:21:11.488Z,3.91
2023-04-05T19:23:38.817Z,3.85
2023-04-05T19:26:05.932Z,3.90
2023-04-05T19:28:32.541Z,3.77
2023-04-05T19:30:59.226Z,3.73
2023-04-05T19:33:26.407Z,3.71
2023-04-05T19:35:53.133Z,3.66
2023-04-05T19:38:22.628Z,3.64
2023-04-05T19:40:49.253Z,3.64
2023-04-05T19:43:15.858Z,3.04
2023-04-05T19:45:42.506Z,3.71
2023-04-05T19:48:27.724Z,3.66
2023-04-05T19:50:56.316Z,3.55
2023-04-05T19:53:32.453Z,3.46
2023-04-05T19:55:59.022Z,3.46
2023-04-05T19:58:28.972Z,2.50
2023-04-05T20:00:55.842Z,2.92
2023-04-05T20:03:33.409Z,2.67
2023-04-05T20:06:06.205Z,2.57
2023-04-05T20:08:33.706Z,2.52
2023-04-05T20:11:00.524Z,2.41
2023-04-05T20:13:27.173Z,2.45
2023-04-05T20:15:54.324Z,2.34
2023-04-05T20:18:23.437Z,2.29
2023-04-05T20:20:51.868Z,2.14
2023-04-05T20:23:19.954Z,2.19
2023-04-05T20:25:49.854Z,2.11
2023-04-05T20:28:41.994Z,2.02
2023-04-05T20:31:10.365Z,1.96
2023-04-05T20:33:51.986Z,1.92
2023-04-05T20:36:20.033Z,1.82
2023-04-05T20:38:47.648Z,1.84
2023-04-05T20:41:14.799Z,1.78
2023-04-05T20:43:42.008Z,1.70
2023-04-05T20:46:09.420Z,1.69
2023-04-05T20:48:36.606Z,1.03
2023-04-05T20:51:05.011Z,1.70
2023-04-05T20:53:31.579Z,1.73
2023-04-05T20:55:59.454Z,1.68
2023-04-05T20:58:26.433Z,1.60
2023-04-05T21:00:53.097Z,1.60
2023-04-05T21:03:19.860Z,1.49
2023-04-05T21:05:46.811Z,1.58
2023-04-05T21:08:13.491Z,1.59
2023-04-05T21:10:40.249Z,1.51
2023-04-05T21:13:07.468Z,1.58
2023-04-05T21:15:35.258Z,1.55
2023-04-05T21:18:02.578Z,1.52
2023-04-05T21:20:38.309Z,1.52
2023-04-05T21:23:04.801Z,1.53
2023-04-05T21:25:31.974Z,1.58
2023-04-05T21:27:59.156Z,1.57
2023-04-05T21:30:26.430Z,1.42
2023-04-05T21:32:54.090Z,1.52
2023-04-05T21:35:22.504Z,1.35
2023-04-05T21:37:50.079Z,1.33
2023-04-05T21:40:16.745Z,1.12
2023-04-05T21:42:43.488Z,1.17
2023-04-05T21:45:10.697Z,1.17
2023-04-05T21:47:39.060Z,1.19
2023-04-05T21:50:06.228Z,1.09
2023-04-05T21:52:32.982Z,0.42
2023-04-05T21:54:59.523Z,0.96
2023-04-05T21:57:26.302Z,0.85
2023-04-05T21:59:52.745Z,0.86
2023-04-05T22:02:19.442Z,0.88
2023-04-05T22:04:46.019Z,0.78
2023-04-05T22:07:12.639Z,0.73
2023-04-05T22:09:39.307Z,0.80
2023-04-05T22:12:09.026Z,0.78
2023-04-05T22:14:36.011Z,0.70
2023-04-05T22:17:02.906Z,0.67
2023-04-05T22:19:29.830Z,0.57
2023-04-05T22:21:56.527Z,0.62
2023-04-05T22:24:24.307Z,0.59
2023-04-05T22:26:53.937Z,0.54
2023-04-05T22:29:23.644Z,0.51
2023-04-05T22:31:50.368Z,0.39
2023-04-05T22:34:16.986Z,0.30
2023-04-05T22:36:44.161Z,0.18
2023-04-05T22:39:11.363Z,0.22
2023-04-05T22:41:38.221Z,0.13
2023-04-05T22:44:05.170Z,-0.60
2023-04-05T22:46:31.724Z,0.00
2023-04-05T22:48:58.708Z,-0.04
2023-04-05T22:51:26.388Z,-0.08
2023-04-05T22:53:53.065Z,-0.07
2023-04-05T22:56:21.722Z,-0.06
2023-04-05T22:58:49.776Z,-0.15
2023-04-05T23:01:16.888Z,-0.11
2023-04-05T23:03:43.583Z,-0.10
2023-04-05T23:06:10.180Z,-0.15
2023-04-05T23:08:36.811Z,-0.16
2023-04-05T23:11:03.590Z,-0.19
2023-04-05T23:13:30.162Z,-0.28
2023-04-05T23:15:56.957Z,-0.10
2023-04-05T23:18:23.808Z,-0.18
2023-04-05T23:20:50.546Z,-0.30
2023-04-05T23:23:17.289Z,-0.42
2023-04-05T23:25:43.957Z,-0.50
2023-04-05T23:28:10.576Z,-0.53
2023-04-05T23:30:37.124Z,-0.51
2023-04-05T23:33:03.804Z,-0.55
2023-04-05T23:35:30.547Z,-0.61
2023-04-05T23:37:57.171Z,-0.61
2023-04-05T23:40:23.903Z,-0.57
2023-04-05T23:42:50.923Z,-0.60
2023-04-05T23:45:17.588Z,-0.88
2023-04-05T23:47:44.312Z,-0.63
2023-04-05T23:50:13.129Z,-0.66
2023-04-05T23:52:39.566Z,-0.69
2023-04-05T23:55:06.587Z,-0.70
2023-04-05T23:57:33.093Z,-0.73
